Terminal Aerodrome Forecast
Issued by NWS

Home | Current Version | Previous Version | Graphics & Text | Print | Product List | Glossary On
Versions: 1 2 3 4 5 6 7 8 9 10 11 12 13 14 15 16 17 18 19 20 21 22 23 24
767
FTUS43 KABR 061516 AAA
TAFPIR
TAF AMD
KPIR 061516Z 0615/0712 30031G39KT 4SM BLSN BKN026
     FM061700 30026G38KT 6SM BLSN SCT030 BKN110
     FM061900 30024G34KT P6SM BKN110
     FM062300 30021G30KT P6SM SCT110=

USA.gov is the U.S. government's official web portal to all federal, state and local government web resources and services.